createdAt,value
2022-08-23T00:00:22.544Z,23.80
2022-08-23T00:05:38.384Z,24.63
2022-08-23T00:10:41.267Z,24.98
2022-08-23T00:15:44.091Z,24.47
2022-08-23T00:20:48.373Z,22.72
2022-08-23T00:25:51.254Z,23.49
2022-08-23T00:30:54.171Z,24.40
2022-08-23T00:35:57.020Z,24.75
2022-08-23T00:40:59.974Z,24.98
2022-08-23T00:46:39.367Z,24.47
2022-08-23T00:51:53.292Z,22.92
2022-08-23T00:56:59.066Z,24.11
2022-08-23T01:02:03.291Z,24.75
2022-08-23T01:07:17.725Z,25.03
2022-08-23T01:12:32.474Z,24.31
2022-08-23T01:17:41.586Z,22.88
2022-08-23T01:22:57.540Z,24.05
2022-08-23T01:28:01.548Z,24.72
2022-08-23T01:33:07.510Z,24.96
2022-08-23T01:38:12.124Z,24.35
2022-08-23T01:43:15.986Z,22.78
2022-08-23T01:48:20.283Z,23.84
2022-08-23T01:53:23.366Z,24.55
2022-08-23T01:58:26.324Z,24.75
2022-08-23T02:03:29.317Z,24.90
2022-08-23T02:08:52.478Z,24.15
2022-08-23T02:13:58.112Z,23.05
2022-08-23T02:19:02.574Z,24.15
2022-08-23T02:24:15.421Z,24.74
2022-08-23T02:29:21.558Z,25.11
2022-08-23T02:34:26.199Z,25.34
2022-08-23T02:39:32.286Z,24.60
2022-08-23T02:44:35.784Z,23.51
2022-08-23T02:49:38.666Z,24.46
2022-08-23T02:54:41.680Z,24.81
2022-08-23T02:59:44.483Z,24.92
2022-08-23T03:04:47.393Z,24.87
2022-08-23T03:09:50.465Z,24.82
2022-08-23T03:14:53.495Z,24.83
2022-08-23T03:19:56.501Z,24.77
2022-08-23T03:24:59.607Z,24.71
2022-08-23T03:30:02.893Z,24.73
2022-08-23T03:35:11.036Z,24.71
2022-08-23T03:40:18.537Z,24.70
2022-08-23T03:45:22.293Z,24.75
2022-08-23T03:50:25.270Z,24.80
2022-08-23T03:55:28.270Z,24.89
2022-08-23T04:00:31.214Z,24.89
2022-08-23T04:05:34.103Z,24.97
2022-08-23T04:10:39.797Z,25.11
2022-08-23T04:15:43.451Z,25.24
2022-08-23T04:20:47.881Z,25.32
2022-08-23T04:25:50.918Z,25.34
2022-08-23T04:30:53.912Z,25.44
2022-08-23T04:35:59.664Z,25.45
2022-08-23T04:41:21.133Z,25.60
2022-08-23T04:46:24.045Z,25.69
2022-08-23T04:51:27.290Z,25.57
2022-08-23T04:56:30.626Z,25.44
2022-08-23T05:01:35.074Z,25.32
2022-08-23T05:06:38.638Z,25.38
2022-08-23T05:11:41.445Z,25.49
2022-08-23T05:16:44.355Z,25.55
2022-08-23T05:21:47.378Z,25.74
2022-08-23T05:26:50.541Z,25.67
2022-08-23T05:31:54.062Z,25.76
2022-08-23T05:36:56.913Z,25.83
2022-08-23T05:41:59.782Z,25.91
2022-08-23T05:47:02.601Z,26.08
2022-08-23T05:52:10.482Z,25.90
2022-08-23T05:57:13.614Z,24.55
2022-08-23T06:02:16.481Z,25.55
2022-08-23T06:07:19.467Z,26.26
2022-08-23T06:12:22.568Z,26.46
2022-08-23T06:17:25.497Z,25.14
2022-08-23T06:22:30.786Z,25.11
2022-08-23T06:27:33.588Z,26.37
2022-08-23T06:32:36.633Z,26.16
2022-08-23T06:37:39.707Z,25.36
2022-08-23T06:42:42.681Z,26.50
2022-08-23T06:47:45.576Z,26.49
2022-08-23T06:52:49.623Z,26.08
2022-08-23T06:57:53.366Z,26.89
2022-08-23T07:02:56.451Z,25.50
2022-08-23T07:07:59.627Z,25.30
2022-08-23T07:13:03.740Z,26.80
2022-08-23T07:18:06.641Z,26.98
2022-08-23T07:23:15.846Z,26.22
2022-08-23T07:28:19.321Z,27.08
2022-08-23T07:33:22.936Z,25.94
2022-08-23T07:38:29.918Z,25.61
2022-08-23T07:43:34.778Z,26.88
2022-08-23T07:48:53.375Z,26.35
2022-08-23T07:53:58.131Z,25.63
2022-08-23T07:59:01.758Z,26.89
2022-08-23T08:04:06.317Z,27.38
2022-08-23T08:09:10.366Z,26.32
2022-08-23T08:14:15.641Z,26.67
2022-08-23T08:19:19.929Z,27.88
2022-08-23T08:24:22.855Z,27.17
2022-08-23T08:29:26.029Z,28.15
2022-08-23T08:34:29.170Z,30.99
2022-08-23T08:39:33.801Z,32.17
2022-08-23T08:44:46.317Z,33.15
2022-08-23T08:49:49.211Z,33.60
2022-08-23T08:55:02.965Z,33.91
2022-08-23T09:00:19.438Z,32.83
2022-08-23T09:05:28.200Z,32.78
2022-08-23T09:10:40.463Z,33.35
2022-08-23T09:16:15.950Z,33.68
2022-08-23T09:21:21.120Z,33.98
2022-08-23T09:26:32.593Z,32.76
2022-08-23T09:31:41.514Z,31.50
2022-08-23T09:36:44.682Z,30.01
2022-08-23T09:41:49.158Z,28.98
2022-08-23T09:47:07.018Z,28.38
2022-08-23T09:52:22.315Z,27.87
2022-08-23T09:57:28.913Z,27.51
2022-08-23T10:02:35.011Z,27.47
2022-08-23T10:07:42.876Z,27.35
2022-08-23T10:12:46.815Z,27.98
2022-08-23T10:18:15.987Z,29.59
2022-08-23T10:23:51.404Z,29.00
2022-08-23T10:29:48.861Z,28.63
2022-08-23T10:35:03.990Z,28.65
2022-08-23T10:40:39.715Z,28.55
2022-08-23T10:45:46.794Z,28.53
2022-08-23T10:50:56.173Z,28.24
2022-08-23T10:56:03.314Z,27.98
2022-08-23T11:01:08.374Z,27.86
2022-08-23T11:06:30.670Z,28.08
2022-08-23T11:11:43.348Z,29.43
2022-08-23T11:16:46.854Z,28.68
2022-08-23T11:21:50.345Z,28.28
2022-08-23T11:26:53.066Z,28.14
2022-08-23T11:32:06.812Z,29.56
2022-08-23T11:37:24.450Z,30.53
2022-08-23T11:42:30.008Z,29.54
2022-08-23T11:47:42.557Z,29.12
2022-08-23T11:52:54.336Z,28.99
2022-08-23T11:58:03.820Z,28.82
2022-08-23T12:03:22.465Z,28.57
2022-08-23T12:08:49.479Z,28.48
2022-08-23T12:13:52.472Z,28.59
2022-08-23T12:19:00.830Z,28.69
2022-08-23T12:24:32.794Z,28.73
2022-08-23T12:29:51.846Z,28.81
2022-08-23T12:35:13.734Z,28.75
2022-08-23T12:40:31.801Z,28.84
2022-08-23T12:45:49.142Z,28.76
2022-08-23T12:50:57.034Z,28.67
2022-08-23T12:56:11.692Z,28.43
2022-08-23T13:01:37.337Z,28.97
2022-08-23T13:06:58.195Z,29.94
2022-08-23T13:12:02.606Z,28.95
2022-08-23T13:17:38.791Z,28.45
2022-08-23T13:23:05.868Z,29.05
2022-08-23T13:28:25.185Z,29.81
2022-08-23T13:33:28.034Z,28.68
2022-08-23T13:38:33.875Z,28.02
2022-08-23T13:43:39.352Z,28.66
2022-08-23T13:48:54.569Z,29.61
2022-08-23T13:53:58.377Z,28.43
2022-08-23T13:59:23.546Z,28.00
2022-08-23T14:04:29.771Z,29.61
2022-08-23T14:09:33.834Z,30.10
2022-08-23T14:14:38.402Z,29.58
2022-08-23T14:25:07.664Z,27.14
2022-08-23T14:30:21.293Z,27.85
2022-08-23T14:35:24.309Z,28.11
2022-08-23T14:40:27.231Z,28.22
2022-08-23T14:45:30.100Z,28.15
2022-08-23T14:50:33.111Z,27.91
2022-08-23T14:55:36.070Z,27.19
2022-08-23T15:00:39.070Z,27.28
2022-08-23T15:05:41.858Z,27.32
2022-08-23T15:12:55.405Z,27.19
2022-08-23T15:16:10.081Z,26.82
2022-08-23T15:21:14.993Z,26.60
2022-08-23T15:26:24.323Z,26.49
2022-08-23T15:31:28.959Z,26.56
2022-08-23T15:36:32.872Z,26.04
2022-08-23T15:41:36.027Z,25.99
2022-08-23T15:46:39.367Z,26.41
2022-08-23T15:51:43.011Z,26.72
2022-08-23T15:56:50.137Z,26.88
2022-08-23T16:01:53.608Z,27.16
2022-08-23T16:07:00.114Z,27.26
2022-08-23T16:12:04.719Z,27.11
2022-08-23T16:17:08.123Z,26.99
2022-08-23T16:22:11.447Z,26.90
2022-08-23T16:27:14.435Z,26.68
2022-08-23T16:32:17.279Z,26.42
2022-08-23T16:37:21.026Z,26.20
2022-08-23T16:42:23.930Z,26.45
2022-08-23T16:47:27.148Z,26.70
2022-08-23T16:52:34.702Z,26.72
2022-08-23T16:57:38.291Z,26.72
2022-08-23T17:02:42.410Z,26.82
2022-08-23T17:07:46.259Z,26.83
2022-08-23T17:12:53.150Z,26.84
2022-08-23T17:17:56.552Z,26.79
2022-08-23T17:22:59.429Z,26.83
2022-08-23T17:28:02.861Z,26.90
2022-08-23T17:33:06.533Z,27.02
2022-08-23T17:38:09.581Z,27.09
2022-08-23T17:43:13.207Z,27.12
2022-08-23T17:48:18.645Z,27.08
2022-08-23T17:53:21.871Z,26.98
2022-08-23T17:58:24.790Z,26.90
2022-08-23T18:03:31.646Z,27.01
2022-08-23T18:08:39.785Z,27.16
2022-08-23T18:13:43.045Z,27.16
2022-08-23T18:18:45.908Z,27.14
2022-08-23T18:23:49.771Z,27.17
2022-08-23T18:28:52.700Z,27.21
2022-08-23T18:34:00.156Z,27.31
2022-08-23T18:39:06.306Z,27.34
2022-08-23T18:44:10.255Z,27.37
2022-08-23T18:49:16.079Z,27.36
2022-08-23T18:54:19.416Z,27.19
2022-08-23T18:59:22.261Z,27.01
2022-08-23T19:04:25.926Z,26.75
2022-08-23T19:09:28.869Z,26.73
2022-08-23T19:14:33.544Z,26.70
2022-08-23T19:19:36.848Z,26.81
2022-08-23T19:24:40.107Z,26.89
2022-08-23T19:29:43.354Z,27.02
2022-08-23T19:34:46.272Z,27.07
2022-08-23T19:39:49.237Z,26.82
2022-08-23T19:44:53.234Z,26.77
2022-08-23T19:49:56.814Z,26.91
2022-08-23T19:55:05.597Z,27.05
2022-08-23T20:00:19.455Z,27.06
2022-08-23T20:05:22.934Z,27.07
2022-08-23T20:10:26.996Z,26.94
2022-08-23T20:15:30.220Z,26.86
2022-08-23T20:20:33.048Z,26.81
2022-08-23T20:25:36.760Z,26.55
2022-08-23T20:30:39.860Z,26.49
2022-08-23T20:35:42.685Z,26.58
2022-08-23T20:40:45.484Z,26.81
2022-08-23T20:45:50.474Z,27.01
2022-08-23T20:50:54.615Z,27.15
2022-08-23T20:55:58.362Z,27.24
2022-08-23T21:01:05.113Z,27.47
2022-08-23T21:06:20.141Z,27.67
2022-08-23T21:11:29.099Z,27.79
2022-08-23T21:16:32.470Z,27.82
2022-08-23T21:21:37.776Z,27.89
2022-08-23T21:26:42.286Z,28.00
2022-08-23T21:31:45.302Z,28.12
2022-08-23T21:36:52.540Z,28.19
2022-08-23T21:41:56.222Z,28.06
2022-08-23T21:46:59.118Z,28.00
2022-08-23T21:52:02.035Z,27.94
2022-08-23T21:57:05.131Z,27.91
2022-08-23T22:02:07.981Z,27.92
2022-08-23T22:07:11.149Z,27.94
2022-08-23T22:12:14.862Z,27.87
2022-08-23T22:17:18.115Z,27.86
2022-08-23T22:22:21.536Z,27.81
2022-08-23T22:27:24.421Z,27.68
2022-08-23T22:32:27.497Z,27.57
2022-08-23T22:37:30.349Z,27.55
2022-08-23T22:42:36.158Z,27.42
2022-08-23T22:47:39.131Z,27.44
2022-08-23T22:52:42.713Z,27.48
2022-08-23T22:57:45.591Z,27.54
2022-08-23T23:02:48.488Z,27.51
2022-08-23T23:08:11.288Z,27.53
2022-08-23T23:13:14.239Z,27.56
2022-08-23T23:18:18.817Z,27.44
2022-08-23T23:23:22.704Z,27.11
2022-08-23T23:28:25.827Z,26.73
2022-08-23T23:33:28.857Z,26.56
2022-08-23T23:38:31.753Z,26.38
2022-08-23T23:43:35.738Z,26.53
2022-08-23T23:48:40.087Z,26.86
2022-08-23T23:53:43.530Z,27.08
2022-08-23T23:58:47.045Z,27.11
